Hovedside
METAR-TAF:

METAR-TAF

Lufthavner :

Dehradun, India

breddegrad: 30-11-23N, lengdegrad: 78-10-49E, høyde over havet: 558 m

Gjeldene værobservasjon

Denne rapporten ble laget for 4 timer og 3 minutter siden, klokken 17:30 UTC
Vind 5 kt fra Øst-sørøst
Temperatur 33°C
Luftfuktighet 28%
Trykk 1001 hPa
Sikt: 3000 m
dis,

METAR: VIDN 141730Z 12005KT 3000 HZ NSC 33/12 Q1001 NOSIG

Tid: 03:03 (21:33 UTC)

Varsel

Denne rapporten ble laget for 10 timer og 33 minutter siden, klokken 11:00 UTC
Varsel gyldig fra 14. klokken 12 UTC til 14. klokken 21 UTC
Vind 10 kt fra Vest
Sikt: 4000 m
dis,

TAF: VIDN 141100Z 1412/1421 26010KT 4000 HZ NSC

Værobservasjoner og værvarsel for over 4000 flyplasser (METAR- og TAF-rapporter).

Tilgjengelige stasjoner er representert av de røde og gule prikkene på kartet.

Hold musepekeren over prikken for å se navnet på stasjonen.

Klikk så for å se værobservasjoner og -varsler.

For å forandre kartet kan du klikke på den grønne knappen med svart kryss for å zoome inn, på den grønne knappen med strek for å zoome ut, eller på de grønne pilene for å se tilstøtende kart.


METAR-TAF: